createdAt,value
2017-11-15T00:00:32.342Z,14.02
2017-11-15T00:01:06.215Z,13.60
2017-11-15T00:01:40.434Z,11.95
2017-11-15T00:02:14.359Z,10.88
2017-11-15T00:02:48.445Z,12.27
2017-11-15T00:03:22.330Z,11.85
2017-11-15T00:03:56.210Z,10.32
2017-11-15T00:04:30.077Z,11.07
2017-11-15T00:05:04.036Z,11.50
2017-11-15T00:05:38.122Z,11.10
2017-11-15T00:06:11.997Z,11.60
2017-11-15T00:06:45.893Z,11.35
2017-11-15T00:07:19.803Z,11.50
2017-11-15T00:07:53.692Z,12.13
2017-11-15T00:08:27.580Z,11.32
2017-11-15T00:09:01.584Z,10.30
2017-11-15T00:09:35.489Z,12.05
2017-11-15T00:10:09.351Z,11.48
2017-11-15T00:10:43.275Z,11.52
2017-11-15T00:11:17.186Z,10.60
2017-11-15T00:11:51.079Z,10.98
2017-11-15T00:12:24.963Z,9.90
2017-11-15T00:12:58.955Z,11.60
2017-11-15T00:13:32.852Z,11.45
2017-11-15T00:14:06.733Z,9.57
2017-11-15T00:14:40.604Z,10.93
2017-11-15T00:15:14.478Z,10.73
2017-11-15T00:15:49.261Z,11.20
2017-11-15T00:16:23.157Z,11.93
2017-11-15T00:16:57.056Z,10.05
2017-11-15T00:17:30.943Z,10.40
2017-11-15T00:18:04.818Z,10.20
2017-11-15T00:18:38.725Z,11.73
2017-11-15T00:19:12.610Z,11.43
2017-11-15T00:19:46.535Z,11.50
2017-11-15T00:20:20.487Z,11.10
2017-11-15T00:20:54.468Z,11.35
2017-11-15T00:21:28.348Z,12.20
2017-11-15T00:22:02.430Z,11.40
2017-11-15T00:22:36.313Z,11.10
2017-11-15T00:23:10.327Z,11.90
2017-11-15T00:23:44.322Z,10.35
2017-11-15T00:24:18.209Z,12.02
2017-11-15T00:24:52.112Z,11.43
2017-11-15T00:25:25.993Z,10.60
2017-11-15T00:25:59.884Z,12.07
2017-11-15T00:26:33.757Z,11.00
2017-11-15T00:27:07.681Z,11.55
2017-11-15T00:27:41.550Z,13.55
2017-11-15T00:28:15.421Z,12.25
2017-11-15T00:28:49.304Z,11.43
2017-11-15T00:29:23.488Z,10.82
2017-11-15T00:29:57.451Z,12.32
2017-11-15T00:30:31.460Z,12.40
2017-11-15T00:31:05.338Z,11.20
2017-11-15T00:31:39.443Z,11.77
2017-11-15T00:32:13.470Z,12.63
2017-11-15T00:32:47.341Z,12.43
2017-11-15T00:33:21.226Z,12.13
2017-11-15T00:33:55.103Z,10.77
2017-11-15T00:34:29.141Z,11.50
2017-11-15T00:35:03.026Z,12.27
2017-11-15T00:35:36.886Z,12.80
2017-11-15T00:36:10.819Z,12.75
2017-11-15T00:36:44.714Z,12.10
2017-11-15T00:37:18.589Z,11.95
2017-11-15T00:37:52.550Z,11.15
2017-11-15T00:38:26.415Z,12.13
2017-11-15T00:39:00.291Z,12.30
2017-11-15T00:39:34.181Z,11.40
2017-11-15T00:40:08.056Z,12.05
2017-11-15T00:40:41.914Z,11.85
2017-11-15T00:41:16.077Z,13.27
2017-11-15T00:41:50.007Z,11.88
2017-11-15T00:42:23.900Z,11.30
2017-11-15T00:42:57.777Z,11.57
2017-11-15T00:43:31.776Z,12.20
2017-11-15T00:44:05.646Z,12.68
2017-11-15T00:44:39.667Z,13.90
2017-11-15T00:45:13.534Z,11.90
2017-11-15T00:45:47.439Z,12.37
2017-11-15T00:46:21.350Z,11.45
2017-11-15T00:46:55.240Z,12.00
2017-11-15T00:47:29.339Z,12.35
2017-11-15T00:48:03.212Z,12.65
2017-11-15T00:48:37.079Z,12.60
2017-11-15T00:49:11.020Z,11.18
2017-11-15T00:49:44.934Z,12.43
2017-11-15T00:50:18.790Z,12.88
2017-11-15T00:50:52.703Z,12.50
2017-11-15T00:51:26.704Z,12.50
2017-11-15T00:52:00.580Z,12.93
2017-11-15T00:52:34.480Z,12.68
2017-11-15T00:53:08.351Z,13.18
2017-11-15T00:53:42.215Z,12.57
2017-11-15T00:54:16.382Z,12.00
2017-11-15T00:54:50.307Z,13.07
2017-11-15T00:55:24.190Z,11.63
2017-11-15T00:55:58.067Z,12.00
2017-11-15T00:56:31.940Z,11.98
2017-11-15T00:57:05.825Z,12.43
2017-11-15T00:57:39.739Z,12.05
2017-11-15T00:58:13.838Z,13.32
2017-11-15T00:58:47.727Z,11.75
2017-11-15T00:59:22.052Z,12.23
2017-11-15T00:59:55.921Z,12.45
2017-11-15T01:00:29.858Z,12.10
2017-11-15T01:01:04.053Z,12.82
2017-11-15T01:01:38.069Z,12.52
2017-11-15T01:02:11.952Z,12.10
2017-11-15T01:02:46.048Z,11.90
2017-11-15T01:03:20.076Z,14.07
2017-11-15T01:03:53.946Z,12.52
2017-11-15T01:04:27.987Z,12.15
2017-11-15T01:05:01.867Z,12.30
2017-11-15T01:05:35.892Z,12.52
2017-11-15T01:06:10.202Z,12.75
2017-11-15T01:06:44.092Z,13.25
2017-11-15T01:07:17.985Z,12.25
2017-11-15T01:07:51.899Z,11.85
2017-11-15T01:08:25.776Z,12.88
2017-11-15T01:08:59.875Z,11.73
2017-11-15T01:09:33.783Z,12.65
2017-11-15T01:10:07.666Z,12.95
2017-11-15T01:10:41.558Z,13.25
2017-11-15T01:11:15.645Z,12.40
2017-11-15T01:11:49.517Z,13.20
2017-11-15T01:12:23.389Z,12.45
2017-11-15T01:12:57.388Z,12.88
2017-11-15T01:13:31.260Z,13.85
2017-11-15T01:14:05.348Z,12.70
2017-11-15T01:14:39.230Z,13.07
2017-11-15T01:15:13.125Z,14.55
2017-11-15T01:15:47.008Z,12.57
2017-11-15T01:16:20.904Z,12.45
2017-11-15T01:16:54.786Z,12.70
2017-11-15T01:17:28.663Z,12.93
2017-11-15T01:18:02.563Z,13.95
2017-11-15T01:18:36.434Z,12.15
2017-11-15T01:19:10.439Z,13.55
2017-11-15T01:19:44.428Z,11.82
2017-11-15T01:20:18.296Z,12.63
2017-11-15T01:20:52.172Z,12.80
2017-11-15T01:21:26.052Z,13.30
2017-11-15T01:21:59.928Z,12.95
2017-11-15T01:22:33.803Z,13.73
2017-11-15T01:23:07.724Z,13.75
2017-11-15T01:23:41.627Z,14.68
2017-11-15T01:24:15.504Z,14.80
2017-11-15T01:24:49.441Z,13.77
2017-11-15T01:25:23.315Z,14.70
2017-11-15T01:25:57.186Z,13.90
2017-11-15T01:26:31.107Z,13.70
2017-11-15T01:27:05.139Z,13.45
2017-11-15T01:27:39.059Z,14.50
2017-11-15T01:28:13.059Z,13.70
2017-11-15T01:28:46.919Z,14.38
2017-11-15T01:29:20.836Z,14.18
2017-11-15T01:29:54.769Z,14.55
2017-11-15T01:30:28.874Z,17.15
2017-11-15T01:31:02.747Z,14.87
2017-11-15T01:31:36.758Z,13.55
2017-11-15T01:32:10.653Z,13.88
2017-11-15T01:32:44.675Z,14.45
2017-11-15T01:33:18.640Z,13.30
2017-11-15T01:33:52.514Z,14.95
2017-11-15T01:34:26.620Z,14.35
2017-11-15T01:35:00.494Z,14.05
2017-11-15T01:35:34.423Z,15.45
2017-11-15T01:36:08.292Z,14.65
2017-11-15T01:36:42.179Z,14.20
2017-11-15T01:37:16.224Z,13.55
2017-11-15T01:37:50.227Z,14.80
2017-11-15T01:38:24.120Z,13.70
2017-11-15T01:38:57.991Z,14.43
2017-11-15T01:39:32.010Z,16.30
2017-11-15T01:40:06.022Z,14.52
2017-11-15T01:40:40.172Z,13.98
2017-11-15T01:41:14.055Z,13.45
2017-11-15T01:41:48.024Z,13.60
2017-11-15T01:42:21.915Z,13.43
2017-11-15T01:42:55.778Z,15.00
2017-11-15T01:43:29.705Z,13.82
2017-11-15T01:44:03.778Z,13.88
2017-11-15T01:44:37.680Z,15.13
2017-11-15T01:45:11.563Z,14.20
2017-11-15T01:45:45.474Z,14.05
2017-11-15T01:46:19.340Z,13.73
2017-11-15T01:46:53.259Z,13.70
2017-11-15T01:47:27.130Z,13.00
2017-11-15T01:48:01.024Z,13.65
2017-11-15T01:48:34.921Z,13.25
2017-11-15T01:49:08.882Z,13.62
2017-11-15T01:49:42.739Z,14.23
2017-11-15T01:50:16.623Z,14.05
2017-11-15T01:50:50.517Z,13.65
2017-11-15T01:51:24.395Z,14.30
2017-11-15T01:51:58.280Z,14.25
2017-11-15T01:52:32.715Z,14.23
2017-11-15T01:53:06.723Z,13.32
2017-11-15T01:53:40.634Z,13.70
2017-11-15T01:54:14.513Z,13.73
2017-11-15T01:54:48.422Z,13.20
2017-11-15T01:55:22.300Z,15.07
2017-11-15T01:55:56.184Z,15.13
2017-11-15T01:56:30.055Z,13.40
2017-11-15T01:57:04.020Z,13.75
2017-11-15T01:57:37.988Z,14.65
2017-11-15T01:58:12.017Z,13.77
2017-11-15T01:58:45.900Z,13.60
2017-11-15T01:59:19.780Z,14.52
2017-11-15T01:59:53.650Z,14.00
2017-11-15T02:00:33.410Z,13.90
2017-11-15T02:01:13.269Z,12.95
2017-11-15T02:01:47.181Z,13.18
2017-11-15T02:02:21.212Z,13.62
2017-11-15T02:02:55.087Z,14.15
2017-11-15T02:03:28.976Z,13.40
2017-11-15T02:04:02.884Z,14.40
2017-11-15T02:04:36.803Z,13.88
2017-11-15T02:05:10.663Z,14.35
2017-11-15T02:05:44.578Z,14.40
2017-11-15T02:06:18.456Z,14.30
2017-11-15T02:06:52.322Z,12.60
2017-11-15T02:07:26.192Z,13.43
2017-11-15T02:08:00.092Z,14.15
2017-11-15T02:08:34.279Z,13.48
2017-11-15T02:09:08.304Z,14.25
2017-11-15T02:09:42.170Z,14.57
2017-11-15T02:10:16.271Z,13.35
2017-11-15T02:10:50.143Z,13.50
2017-11-15T02:11:24.020Z,14.45
2017-11-15T02:11:57.891Z,14.18
2017-11-15T02:12:31.759Z,14.40
2017-11-15T02:13:05.627Z,13.20
2017-11-15T02:13:39.648Z,13.68
2017-11-15T02:14:13.527Z,13.70
2017-11-15T02:14:47.570Z,13.93
2017-11-15T02:15:21.649Z,13.60
2017-11-15T02:15:55.515Z,12.85
2017-11-15T02:16:29.393Z,13.23
2017-11-15T02:17:03.320Z,14.45
2017-11-15T02:17:37.194Z,14.87
2017-11-15T02:18:11.128Z,15.10
2017-11-15T02:18:45.109Z,15.45
2017-11-15T02:19:18.981Z,16.05
2017-11-15T02:19:52.850Z,15.23
2017-11-15T02:20:26.723Z,14.55
2017-11-15T02:21:00.693Z,14.00
2017-11-15T02:21:34.565Z,15.07
2017-11-15T02:22:08.993Z,13.52
2017-11-15T02:22:42.859Z,13.52
2017-11-15T02:23:17.268Z,15.00
2017-11-15T02:23:51.152Z,14.05
2017-11-15T02:24:25.047Z,14.95
2017-11-15T02:24:58.908Z,15.00
2017-11-15T02:25:32.986Z,14.40
2017-11-15T02:26:06.895Z,14.98
2017-11-15T02:26:40.758Z,15.55
2017-11-15T02:27:14.631Z,15.18
2017-11-15T02:27:48.513Z,15.50
2017-11-15T02:28:22.369Z,15.32
2017-11-15T02:28:56.283Z,15.68
2017-11-15T02:29:30.171Z,15.57
2017-11-15T02:30:04.046Z,17.50
2017-11-15T02:30:37.904Z,16.02
2017-11-15T02:31:11.780Z,14.57
2017-11-15T02:31:45.727Z,15.20
2017-11-15T02:32:19.604Z,13.93
2017-11-15T02:32:53.479Z,15.52
2017-11-15T02:33:27.357Z,15.60
2017-11-15T02:34:01.255Z,14.95
2017-11-15T02:34:35.147Z,14.57
2017-11-15T02:35:09.095Z,15.18
2017-11-15T02:35:43.014Z,16.17
2017-11-15T02:36:16.927Z,15.55
2017-11-15T02:36:50.986Z,16.45
2017-11-15T02:37:24.863Z,15.35
2017-11-15T02:37:58.792Z,15.10
2017-11-15T02:38:32.673Z,14.70
2017-11-15T02:39:06.544Z,15.05
2017-11-15T02:39:40.666Z,15.95
2017-11-15T02:40:14.540Z,14.45
2017-11-15T02:40:48.410Z,14.80
2017-11-15T02:41:22.280Z,16.92
2017-11-15T02:41:56.352Z,14.82
2017-11-15T02:42:30.220Z,15.50
2017-11-15T02:43:04.100Z,15.07
2017-11-15T02:43:37.968Z,13.75
2017-11-15T02:44:11.838Z,14.98
2017-11-15T02:44:45.723Z,15.95
2017-11-15T02:45:19.603Z,17.12
2017-11-15T02:45:53.471Z,16.50
2017-11-15T02:46:27.364Z,16.23
2017-11-15T02:47:01.255Z,14.57
2017-11-15T02:47:35.131Z,16.23
2017-11-15T02:48:09.001Z,16.50
2017-11-15T02:48:42.900Z,14.20
2017-11-15T02:49:16.773Z,14.80
2017-11-15T02:49:50.658Z,15.38
2017-11-15T02:50:24.555Z,15.25
2017-11-15T02:50:58.440Z,14.35
2017-11-15T02:51:32.326Z,16.40
2017-11-15T02:52:06.243Z,16.52
2017-11-15T02:52:40.119Z,14.55
2017-11-15T02:53:13.984Z,15.90
2017-11-15T02:53:47.860Z,14.85
2017-11-15T02:54:21.856Z,15.45
2017-11-15T02:54:55.719Z,14.43
2017-11-15T02:55:29.630Z,14.80
2017-11-15T02:56:03.518Z,15.25
2017-11-15T02:56:37.390Z,13.90
2017-11-15T02:57:11.288Z,13.23
2017-11-15T02:57:45.191Z,14.52
2017-11-15T02:58:19.229Z,13.98
2017-11-15T02:58:53.105Z,14.57
2017-11-15T02:59:26.994Z,14.65
2017-11-15T03:00:00.876Z,14.75
2017-11-15T03:00:34.897Z,14.10
2017-11-15T03:01:08.780Z,14.05
2017-11-15T03:01:42.651Z,14.80
2017-11-15T03:02:16.530Z,15.15
2017-11-15T03:02:50.404Z,16.35
2017-11-15T03:03:24.399Z,13.48
2017-11-15T03:03:58.494Z,14.10
2017-11-15T03:04:32.362Z,14.63
2017-11-15T03:05:06.463Z,14.85
2017-11-15T03:05:40.365Z,14.68
2017-11-15T03:06:14.242Z,15.38
2017-11-15T03:06:48.112Z,14.90
2017-11-15T03:07:22.172Z,14.32
2017-11-15T03:07:56.040Z,15.15
2017-11-15T03:08:30.068Z,14.20
2017-11-15T03:09:04.249Z,15.00
2017-11-15T03:09:38.123Z,13.62
2017-11-15T03:10:11.999Z,14.85
2017-11-15T03:10:45.933Z,12.93
2017-11-15T03:11:20.155Z,14.57
2017-11-15T03:11:54.044Z,15.80
2017-11-15T03:12:28.137Z,15.80
2017-11-15T03:13:01.998Z,14.90
2017-11-15T03:13:35.847Z,14.05
2017-11-15T03:14:09.824Z,14.55
2017-11-15T03:14:43.823Z,13.88
2017-11-15T03:15:17.820Z,15.15
2017-11-15T03:15:51.820Z,15.20
2017-11-15T03:16:25.824Z,14.80
2017-11-15T03:16:59.717Z,13.60
2017-11-15T03:17:33.703Z,14.68
2017-11-15T03:18:07.576Z,13.07
2017-11-15T03:18:41.443Z,15.93
2017-11-15T03:19:15.444Z,13.70
2017-11-15T03:19:49.325Z,15.52
2017-11-15T03:20:23.203Z,14.27
2017-11-15T03:20:57.180Z,14.35
2017-11-15T03:21:31.039Z,15.52
2017-11-15T03:22:04.908Z,14.65
2017-11-15T03:22:39.066Z,14.40
2017-11-15T03:23:12.930Z,14.77
2017-11-15T03:23:46.794Z,13.75
2017-11-15T03:24:20.865Z,13.93
2017-11-15T03:24:54.777Z,14.27
2017-11-15T03:25:28.745Z,14.43
2017-11-15T03:26:02.959Z,15.02
2017-11-15T03:26:36.963Z,14.90
2017-11-15T03:27:10.859Z,15.35
2017-11-15T03:27:44.732Z,14.80
2017-11-15T03:28:18.591Z,15.40
2017-11-15T03:28:52.473Z,13.50
2017-11-15T03:29:26.360Z,15.40
2017-11-15T03:30:00.346Z,16.30
2017-11-15T03:30:34.357Z,15.13
2017-11-15T03:31:08.365Z,13.50
2017-11-15T03:31:42.236Z,14.52
2017-11-15T03:32:16.119Z,15.70
2017-11-15T03:32:49.995Z,14.45
2017-11-15T03:33:24.022Z,14.93
2017-11-15T03:33:58.000Z,15.13
2017-11-15T03:34:31.901Z,16.35
2017-11-15T03:35:05.767Z,13.73
2017-11-15T03:35:39.662Z,15.18
2017-11-15T03:36:13.681Z,13.55
2017-11-15T03:36:47.555Z,15.25
2017-11-15T03:37:21.425Z,15.60
2017-11-15T03:37:55.374Z,17.10
2017-11-15T03:38:29.248Z,15.85
2017-11-15T03:39:03.108Z,15.45
2017-11-15T03:39:36.975Z,15.00
2017-11-15T03:40:10.861Z,14.65
2017-11-15T03:40:44.841Z,14.90
2017-11-15T03:41:18.714Z,14.13
2017-11-15T03:41:52.593Z,14.13
2017-11-15T03:42:26.462Z,15.52
2017-11-15T03:43:00.333Z,15.20
2017-11-15T03:43:34.187Z,16.25
2017-11-15T03:44:08.325Z,15.85
2017-11-15T03:44:42.178Z,15.05
2017-11-15T03:45:16.063Z,18.50
2017-11-15T03:45:50.318Z,15.05
2017-11-15T03:46:24.183Z,16.50
2017-11-15T03:46:58.069Z,15.60
2017-11-15T03:47:31.930Z,15.73
2017-11-15T03:48:05.807Z,16.50
2017-11-15T03:48:39.675Z,16.65
2017-11-15T03:49:13.544Z,16.40
2017-11-15T03:49:47.428Z,15.82
2017-11-15T03:50:21.582Z,16.85
2017-11-15T03:50:55.476Z,16.52
2017-11-15T03:51:29.352Z,16.58
2017-11-15T03:52:03.222Z,17.77
2017-11-15T03:52:37.276Z,14.98
2017-11-15T03:53:11.151Z,15.40
2017-11-15T03:53:45.008Z,15.88
2017-11-15T03:54:18.946Z,15.50
2017-11-15T03:54:52.944Z,14.90
2017-11-15T03:55:26.858Z,16.08
2017-11-15T03:56:00.736Z,14.80
2017-11-15T03:56:34.622Z,16.23
2017-11-15T03:57:08.599Z,14.23
2017-11-15T03:57:42.482Z,14.65
2017-11-15T03:58:16.427Z,15.98
2017-11-15T03:58:50.295Z,15.15
2017-11-15T03:59:24.164Z,14.75
2017-11-15T03:59:58.098Z,15.02
2017-11-15T04:00:32.091Z,15.52
2017-11-15T04:01:06.200Z,16.42
2017-11-15T04:01:40.068Z,16.02
2017-11-15T04:02:13.948Z,13.68
2017-11-15T04:02:47.838Z,15.40
2017-11-15T04:03:21.780Z,15.25
2017-11-15T04:03:55.663Z,15.05
2017-11-15T04:04:29.682Z,15.88
2017-11-15T04:05:03.553Z,15.70
2017-11-15T04:05:37.573Z,16.58
2017-11-15T04:06:11.455Z,17.40
2017-11-15T04:06:45.331Z,15.05
2017-11-15T04:07:19.467Z,17.00
2017-11-15T04:07:53.340Z,16.42
2017-11-15T04:08:27.203Z,17.75
2017-11-15T04:09:01.148Z,17.12
2017-11-15T04:09:35.260Z,16.90
2017-11-15T04:10:09.238Z,17.35
2017-11-15T04:10:43.245Z,16.55
2017-11-15T04:11:17.120Z,17.00
2017-11-15T04:11:51.148Z,17.58
2017-11-15T04:12:25.024Z,16.98
2017-11-15T04:12:58.904Z,17.20
2017-11-15T04:13:32.835Z,17.27
2017-11-15T04:14:06.710Z,15.50
2017-11-15T04:14:40.736Z,17.42
2017-11-15T04:15:14.937Z,15.13
2017-11-15T04:15:48.932Z,18.35
2017-11-15T04:16:22.864Z,17.92
2017-11-15T04:16:56.903Z,15.75
2017-11-15T04:17:30.784Z,18.12
2017-11-15T04:18:04.647Z,18.37
2017-11-15T04:18:38.526Z,16.30
2017-11-15T04:19:12.415Z,16.45
2017-11-15T04:19:46.278Z,16.00
2017-11-15T04:20:20.151Z,17.65
2017-11-15T04:20:54.189Z,15.35
2017-11-15T04:21:28.097Z,16.98
2017-11-15T04:22:02.118Z,17.50
2017-11-15T04:22:36.175Z,16.90
2017-11-15T04:23:10.163Z,15.80
2017-11-15T04:23:44.182Z,16.75
2017-11-15T04:24:18.043Z,17.20
2017-11-15T04:24:51.959Z,17.48
2017-11-15T04:25:25.828Z,16.75
2017-11-15T04:25:59.703Z,17.45
2017-11-15T04:26:34.218Z,16.40
2017-11-15T04:27:08.171Z,17.02
2017-11-15T04:27:42.024Z,17.30
2017-11-15T04:28:16.063Z,16.30
2017-11-15T04:28:49.940Z,17.17
2017-11-15T04:29:23.809Z,16.25
2017-11-15T04:29:57.688Z,17.17
2017-11-15T04:30:31.557Z,17.67
2017-11-15T04:31:05.451Z,17.00
2017-11-15T04:31:39.337Z,16.35
2017-11-15T04:32:13.234Z,17.60
2017-11-15T04:32:47.116Z,15.98
2017-11-15T04:33:21.020Z,15.90
2017-11-15T04:33:54.901Z,16.90
2017-11-15T04:34:28.799Z,16.92
2017-11-15T04:35:02.790Z,17.27
2017-11-15T04:35:36.675Z,17.42
2017-11-15T04:36:10.691Z,17.65
2017-11-15T04:36:44.579Z,17.40
2017-11-15T04:37:18.438Z,17.60
2017-11-15T04:37:52.305Z,15.95
2017-11-15T04:38:26.376Z,16.83
2017-11-15T04:39:00.258Z,16.40
2017-11-15T04:39:34.130Z,17.77
2017-11-15T04:40:07.995Z,19.00
2017-11-15T04:40:41.901Z,17.00
2017-11-15T04:41:15.779Z,17.42
2017-11-15T04:41:49.769Z,17.75
2017-11-15T04:42:23.766Z,16.67
2017-11-15T04:42:57.636Z,18.85
2017-11-15T04:43:31.521Z,16.90
2017-11-15T04:44:05.429Z,17.20
2017-11-15T04:44:39.307Z,17.35
2017-11-15T04:45:13.217Z,19.35
2017-11-15T04:45:47.406Z,17.25
2017-11-15T04:46:21.268Z,17.62
2017-11-15T04:46:55.173Z,18.30
2017-11-15T04:47:29.157Z,17.98
2017-11-15T04:48:03.024Z,17.60
2017-11-15T04:48:36.920Z,18.75
2017-11-15T04:49:11.084Z,18.50
2017-11-15T04:49:44.945Z,17.65
2017-11-15T04:50:18.891Z,17.65
2017-11-15T04:50:52.766Z,18.77
2017-11-15T04:51:26.622Z,17.90
2017-11-15T04:52:00.581Z,18.00
2017-11-15T04:52:34.453Z,18.25
2017-11-15T04:53:08.479Z,16.67
2017-11-15T04:53:42.387Z,18.98
2017-11-15T04:54:16.355Z,17.30
2017-11-15T04:54:50.232Z,17.85
2017-11-15T04:55:24.254Z,18.20
2017-11-15T04:55:58.129Z,18.98
2017-11-15T04:56:32.068Z,18.52
2017-11-15T04:57:05.952Z,18.83
2017-11-15T04:57:39.816Z,18.87
2017-11-15T04:58:13.714Z,18.60
2017-11-15T04:58:47.700Z,16.70
2017-11-15T04:59:21.723Z,16.48
2017-11-15T04:59:55.603Z,18.37
2017-11-15T05:00:29.520Z,18.48
2017-11-15T05:01:03.425Z,19.25
2017-11-15T05:01:37.400Z,17.52
2017-11-15T05:02:11.276Z,19.12
2017-11-15T05:02:45.165Z,18.55
2017-11-15T05:03:19.048Z,19.48
2017-11-15T05:03:53.200Z,18.08
2017-11-15T05:04:27.073Z,18.33
2017-11-15T05:05:00.948Z,17.62
2017-11-15T05:05:34.971Z,18.67
2017-11-15T05:06:09.254Z,20.12
2017-11-15T05:06:43.169Z,17.60
2017-11-15T05:07:17.044Z,18.90
2017-11-15T05:07:50.925Z,19.70
2017-11-15T05:08:24.871Z,18.02
2017-11-15T05:08:58.747Z,17.80
2017-11-15T05:09:32.630Z,18.25
2017-11-15T05:10:06.650Z,18.75
2017-11-15T05:10:40.531Z,17.80
2017-11-15T05:11:14.652Z,18.65
2017-11-15T05:11:48.570Z,17.77
2017-11-15T05:12:22.538Z,17.70
2017-11-15T05:12:56.443Z,19.27
2017-11-15T05:13:30.642Z,19.40
2017-11-15T05:14:04.528Z,19.10
2017-11-15T05:14:38.435Z,20.00
2017-11-15T05:15:12.352Z,19.75
2017-11-15T05:15:46.229Z,20.45
2017-11-15T05:16:20.132Z,19.75
2017-11-15T05:16:54.005Z,20.33
2017-11-15T05:17:27.897Z,18.95
2017-11-15T05:18:01.811Z,17.80
2017-11-15T05:18:35.674Z,18.95
2017-11-15T05:19:09.547Z,18.87
2017-11-15T05:19:43.586Z,18.92
2017-11-15T05:20:17.449Z,18.45
2017-11-15T05:20:51.321Z,20.92
2017-11-15T05:21:25.574Z,19.87
2017-11-15T05:21:59.442Z,18.33
2017-11-15T05:22:33.317Z,19.33
2017-11-15T05:23:07.261Z,18.73
2017-11-15T05:23:41.130Z,19.75
2017-11-15T05:24:14.998Z,19.10
2017-11-15T05:24:48.948Z,19.35
2017-11-15T05:25:22.844Z,18.83
2017-11-15T05:25:56.723Z,19.62
2017-11-15T05:26:30.635Z,20.98
2017-11-15T05:27:04.499Z,20.02
2017-11-15T05:27:38.483Z,19.15
2017-11-15T05:28:12.372Z,21.08
2017-11-15T05:28:46.249Z,20.20
2017-11-15T05:29:20.103Z,19.75
2017-11-15T05:29:54.017Z,20.48
2017-11-15T05:30:27.893Z,19.83
2017-11-15T05:31:01.898Z,20.58
2017-11-15T05:31:36.500Z,19.35
2017-11-15T05:32:10.366Z,20.90
2017-11-15T05:32:44.436Z,19.62
2017-11-15T05:33:18.323Z,20.60
2017-11-15T05:33:52.195Z,19.48
2017-11-15T05:34:26.190Z,20.25
2017-11-15T05:35:00.232Z,19.42
2017-11-15T05:35:34.109Z,21.00
2017-11-15T05:36:08.136Z,19.65
2017-11-15T05:36:42.014Z,19.90
2017-11-15T05:37:15.899Z,20.45
2017-11-15T05:37:49.886Z,19.75
2017-11-15T05:38:23.871Z,19.95
2017-11-15T05:38:57.990Z,20.42
2017-11-15T05:39:31.905Z,20.88
2017-11-15T05:40:05.791Z,19.60
2017-11-15T05:40:39.757Z,20.00
2017-11-15T05:41:13.622Z,18.65
2017-11-15T05:41:47.532Z,18.30
2017-11-15T05:42:21.404Z,19.02
2017-11-15T05:42:55.354Z,21.00
2017-11-15T05:43:29.238Z,20.25
2017-11-15T05:44:03.108Z,20.10
2017-11-15T05:44:37.139Z,20.10
2017-11-15T05:45:11.012Z,19.85
2017-11-15T05:45:44.878Z,20.75
2017-11-15T05:46:18.751Z,20.15
2017-11-15T05:46:52.636Z,19.90
2017-11-15T05:47:26.716Z,20.35
2017-11-15T05:48:00.724Z,18.35
2017-11-15T05:48:34.826Z,19.00
2017-11-15T05:49:08.778Z,19.70
2017-11-15T05:49:42.699Z,18.80
2017-11-15T05:50:16.695Z,21.15
2017-11-15T05:50:50.571Z,20.15
2017-11-15T05:51:24.879Z,20.73
2017-11-15T05:51:58.784Z,21.15
2017-11-15T05:52:32.699Z,19.02
2017-11-15T05:53:06.596Z,21.08
2017-11-15T05:53:40.677Z,19.83
2017-11-15T05:54:15.564Z,21.02
2017-11-15T05:54:49.432Z,19.90
2017-11-15T05:55:23.298Z,19.70
2017-11-15T05:55:57.164Z,20.15
2017-11-15T05:56:31.092Z,19.10
2017-11-15T05:57:04.979Z,19.95
2017-11-15T05:57:38.866Z,19.80
2017-11-15T05:58:13.067Z,18.65
2017-11-15T05:58:46.945Z,18.02
2017-11-15T06:00:09.447Z,19.62
2017-11-15T06:00:43.339Z,17.62
2017-11-15T06:01:17.421Z,19.25
2017-11-15T06:01:51.604Z,19.35
2017-11-15T06:02:25.740Z,20.02
2017-11-15T06:02:59.692Z,20.42
2017-11-15T06:03:33.865Z,19.23
2017-11-15T06:04:07.755Z,21.55
2017-11-15T06:04:41.841Z,21.95
2017-11-15T06:05:15.791Z,20.37
2017-11-15T06:05:49.675Z,20.48
2017-11-15T06:06:23.788Z,20.42
2017-11-15T06:06:57.675Z,19.98
2017-11-15T06:07:31.585Z,19.83
2017-11-15T06:08:05.468Z,21.92
2017-11-15T06:08:39.365Z,20.40
2017-11-15T06:09:13.359Z,20.77
2017-11-15T06:09:47.253Z,20.67
2017-11-15T06:10:21.175Z,19.70
2017-11-15T06:10:55.114Z,22.08
2017-11-15T06:11:29.160Z,20.83
2017-11-15T06:12:03.105Z,21.48
2017-11-15T06:12:36.930Z,20.45
2017-11-15T06:13:10.872Z,21.10
2017-11-15T06:13:44.850Z,21.62
2017-11-15T06:14:18.712Z,19.52
2017-11-15T06:14:52.592Z,20.05
2017-11-15T06:15:26.619Z,22.52
2017-11-15T06:16:00.560Z,25.48
2017-11-15T06:16:34.443Z,28.75
2017-11-15T06:17:08.386Z,32.55
2017-11-15T06:17:42.298Z,34.47
2017-11-15T06:18:16.373Z,32.38
2017-11-15T06:18:50.346Z,27.90
2017-11-15T06:19:24.414Z,26.37
2017-11-15T06:19:58.403Z,27.25
2017-11-15T06:20:32.250Z,31.90
2017-11-15T06:21:06.342Z,30.58
2017-11-15T06:21:40.252Z,24.35
2017-11-15T06:22:14.223Z,27.62
2017-11-15T06:22:48.192Z,26.95
2017-11-15T06:23:22.078Z,25.85
2017-11-15T06:23:55.895Z,24.35
2017-11-15T06:24:29.868Z,34.35
2017-11-15T06:25:03.893Z,42.05
2017-11-15T06:25:37.870Z,48.55
2017-11-15T06:26:12.104Z,44.15
2017-11-15T06:26:46.118Z,28.17
2017-11-15T06:27:19.951Z,25.30
2017-11-15T06:27:53.854Z,23.05
2017-11-15T06:28:27.763Z,21.40
2017-11-15T06:29:01.758Z,20.58
2017-11-15T06:29:35.668Z,21.58
2017-11-15T06:30:09.530Z,21.20
2017-11-15T06:30:43.725Z,23.15
2017-11-15T06:31:18.443Z,19.52
2017-11-15T06:31:52.442Z,22.85
2017-11-15T06:32:26.399Z,21.62
2017-11-15T06:33:00.387Z,24.10
2017-11-15T06:33:34.283Z,26.10
2017-11-15T06:34:08.402Z,20.73
2017-11-15T06:34:42.189Z,20.88
2017-11-15T06:35:16.093Z,23.00
2017-11-15T06:35:50.058Z,21.58
2017-11-15T06:36:23.994Z,20.48
2017-11-15T06:36:57.944Z,20.35
2017-11-15T06:37:31.882Z,20.12
2017-11-15T06:38:05.772Z,20.95
2017-11-15T06:38:41.928Z,20.37
2017-11-15T06:39:15.957Z,20.65
2017-11-15T06:39:49.937Z,21.65
2017-11-15T06:40:23.918Z,21.35
2017-11-15T06:40:57.807Z,20.73
2017-11-15T06:41:31.847Z,21.73
2017-11-15T06:42:05.748Z,22.50
2017-11-15T06:42:40.275Z,23.20
2017-11-15T06:43:14.179Z,21.98
2017-11-15T06:43:48.068Z,22.13
2017-11-15T06:44:22.060Z,22.15
2017-11-15T06:44:55.987Z,23.10
2017-11-15T06:45:29.958Z,22.20
2017-11-15T06:46:03.880Z,21.15
2017-11-15T06:46:37.825Z,19.60
2017-11-15T06:47:11.744Z,21.08
2017-11-15T06:47:45.630Z,22.67
2017-11-15T06:48:19.584Z,23.58
2017-11-15T06:48:53.461Z,24.48
2017-11-15T06:49:27.329Z,28.52
2017-11-15T06:50:01.205Z,25.52
2017-11-15T06:50:35.124Z,27.95
2017-11-15T06:51:09.835Z,28.90
2017-11-15T06:51:43.692Z,31.10
2017-11-15T06:52:17.649Z,32.92
2017-11-15T06:52:52.098Z,30.30
2017-11-15T06:53:25.982Z,26.87
2017-11-15T06:53:59.882Z,33.95
2017-11-15T06:54:33.848Z,26.00
2017-11-15T06:55:08.415Z,22.95
2017-11-15T06:55:42.310Z,22.10
2017-11-15T06:56:16.799Z,21.52
2017-11-15T06:56:50.665Z,22.00
2017-11-15T06:57:24.722Z,21.62
2017-11-15T06:57:58.622Z,22.00
2017-11-15T06:58:32.495Z,22.50
2017-11-15T06:59:06.384Z,21.65
2017-11-15T06:59:40.282Z,20.75
2017-11-15T07:00:14.176Z,20.05
2017-11-15T07:00:48.177Z,21.55
2017-11-15T07:01:22.051Z,20.48
2017-11-15T07:01:55.939Z,20.20
2017-11-15T07:02:29.799Z,21.92
2017-11-15T07:03:03.707Z,19.98
2017-11-15T07:03:39.429Z,18.70
2017-11-15T07:04:13.714Z,19.10
2017-11-15T07:04:47.808Z,20.35
2017-11-15T07:05:21.874Z,21.58
2017-11-15T07:05:55.762Z,19.30
2017-11-15T07:06:30.482Z,19.08
2017-11-15T07:07:04.373Z,19.40
2017-11-15T07:07:38.261Z,19.92
2017-11-15T07:08:12.124Z,19.02
2017-11-15T07:08:46.070Z,19.58
2017-11-15T07:09:19.957Z,18.48
2017-11-15T07:09:54.032Z,21.42
2017-11-15T07:10:28.090Z,24.77
2017-11-15T07:11:02.208Z,24.50
2017-11-15T07:11:36.116Z,22.87
2017-11-15T07:12:10.203Z,20.35
2017-11-15T07:12:44.172Z,20.80
2017-11-15T07:13:18.055Z,20.70
2017-11-15T07:13:52.207Z,19.10
2017-11-15T07:14:26.090Z,20.90
2017-11-15T07:15:00.132Z,21.55
2017-11-15T07:15:34.187Z,19.83
2017-11-15T07:16:08.095Z,18.45
2017-11-15T07:16:41.972Z,18.48
2017-11-15T07:17:15.922Z,19.62
2017-11-15T07:17:50.165Z,19.37
2017-11-15T07:18:24.142Z,18.80